sensor_id;sensor_type;location;lat;lon;timestamp;pressure;altitude;pressure_sealevel;temperature;humidity
67738;BME280;54534;43.612;1.572;2022-07-29T00:00:47;99076.25;;;25.58;43.72
67738;BME280;54534;43.612;1.572;2022-07-29T00:03:13;99076.25;;;25.58;43.89
67738;BME280;54534;43.612;1.572;2022-07-29T00:05:40;99075.41;;;25.57;44.02
67738;BME280;54534;43.612;1.572;2022-07-29T00:08:07;99078.94;;;25.58;44.04
67738;BME280;54534;43.612;1.572;2022-07-29T00:10:32;99075.41;;;25.57;43.57
67738;BME280;54534;43.612;1.572;2022-07-29T00:12:58;99052.16;;;25.56;43.75
67738;BME280;54534;43.612;1.572;2022-07-29T00:15:23;99053.03;;;25.57;43.52
67738;BME280;54534;43.612;1.572;2022-07-29T00:17:49;99061.09;;;25.57;43.95
67738;BME280;54534;43.612;1.572;2022-07-29T00:20:14;99062.94;;;25.56;43.89
67738;BME280;54534;43.612;1.572;2022-07-29T00:22:40;99062.94;;;25.56;43.75
67738;BME280;54534;43.612;1.572;2022-07-29T00:25:07;99047.81;;;25.55;43.45
67738;BME280;54534;43.612;1.572;2022-07-29T00:27:34;99054.06;;;25.55;43.88
67738;BME280;54534;43.612;1.572;2022-07-29T00:29:59;99039.75;;;25.55;43.64
67738;BME280;54534;43.612;1.572;2022-07-29T00:32:25;99022.75;;;25.54;43.71
67738;BME280;54534;43.612;1.572;2022-07-29T00:34:50;99021.06;;;25.53;43.51
67738;BME280;54534;43.612;1.572;2022-07-29T00:37:34;99021.06;;;25.53;43.85
67738;BME280;54534;43.612;1.572;2022-07-29T00:39:59;99015.69;;;25.53;43.51
67738;BME280;54534;43.612;1.572;2022-07-29T00:42:25;99004.09;;;25.53;43.71
67738;BME280;54534;43.612;1.572;2022-07-29T00:44:51;98993.31;;;25.53;43.65
67738;BME280;54534;43.612;1.572;2022-07-29T00:47:16;98992.47;;;25.52;43.77
67738;BME280;54534;43.612;1.572;2022-07-29T00:49:42;98997.88;;;25.52;43.58
67738;BME280;54534;43.612;1.572;2022-07-29T00:52:09;99012.16;;;25.53;43.78
67738;BME280;54534;43.612;1.572;2022-07-29T00:54:35;99016.06;;;25.50;43.79
67738;BME280;54534;43.612;1.572;2022-07-29T00:57:01;99029.31;;;25.52;43.77
67738;BME280;54534;43.612;1.572;2022-07-29T00:59:27;99036.56;;;25.51;43.65
67738;BME280;54534;43.612;1.572;2022-07-29T01:01:53;99042.78;;;25.52;44.03
67738;BME280;54534;43.612;1.572;2022-07-29T01:04:20;99040.09;;;25.52;43.64
67738;BME280;54534;43.612;1.572;2022-07-29T01:06:47;99034.03;;;25.50;43.72
67738;BME280;54534;43.612;1.572;2022-07-29T01:09:15;99034.69;;;25.52;43.65
67738;BME280;54534;43.612;1.572;2022-07-29T01:11:42;99022.25;;;25.51;43.67
67738;BME280;54534;43.612;1.572;2022-07-29T01:14:09;99000.72;;;25.51;43.88
67738;BME280;54534;43.612;1.572;2022-07-29T01:22:35;98986.59;;;25.49;43.47
67738;BME280;54534;43.612;1.572;2022-07-29T01:26:03;99001.09;;;25.48;43.52
67738;BME280;54534;43.612;1.572;2022-07-29T01:28:29;99011.00;;;25.47;43.60
67738;BME280;54534;43.612;1.572;2022-07-29T01:30:56;99005.78;;;25.46;43.55
67738;BME280;54534;43.612;1.572;2022-07-29T01:33:24;99017.25;;;25.48;43.63
67738;BME280;54534;43.612;1.572;2022-07-29T01:36:16;99014.69;;;25.46;43.20
67738;BME280;54534;43.612;1.572;2022-07-29T01:38:45;99002.28;;;25.45;43.38
67738;BME280;54534;43.612;1.572;2022-07-29T01:41:15;98997.72;;;25.46;43.37
67738;BME280;54534;43.612;1.572;2022-07-29T01:43:46;98989.81;;;25.44;43.65
67738;BME280;54534;43.612;1.572;2022-07-29T01:46:19;99000.41;;;25.46;43.69
67738;BME280;54534;43.612;1.572;2022-07-29T01:48:53;98996.06;;;25.44;43.22
67738;BME280;54534;43.612;1.572;2022-07-29T01:51:47;99005.78;;;25.46;43.67
67738;BME280;54534;43.612;1.572;2022-07-29T01:56:53;99006.16;;;25.42;43.52
67738;BME280;54534;43.612;1.572;2022-07-29T01:59:23;99013.19;;;25.43;43.24
67738;BME280;54534;43.612;1.572;2022-07-29T02:01:50;99015.88;;;25.43;43.18
67738;BME280;54534;43.612;1.572;2022-07-29T02:04:17;99014.88;;;25.44;43.07
67738;BME280;54534;43.612;1.572;2022-07-29T02:06:44;98999.75;;;25.43;43.22
67738;BME280;54534;43.612;1.572;2022-07-29T02:09:14;99000.59;;;25.44;43.24
67738;BME280;54534;43.612;1.572;2022-07-29T02:11:43;99002.44;;;25.43;43.16
67738;BME280;54534;43.612;1.572;2022-07-29T02:14:11;99006.97;;;25.43;43.05
67738;BME280;54534;43.612;1.572;2022-07-29T02:16:40;99016.91;;;25.42;43.43
67738;BME280;54534;43.612;1.572;2022-07-29T02:19:06;99015.22;;;25.41;43.12
67738;BME280;54534;43.612;1.572;2022-07-29T02:21:35;99017.91;;;25.41;43.27
67738;BME280;54534;43.612;1.572;2022-07-29T02:24:01;99023.31;;;25.41;43.16
67738;BME280;54534;43.612;1.572;2022-07-29T02:26:29;99030.38;;;25.42;43.03
67738;BME280;54534;43.612;1.572;2022-07-29T02:28:57;99031.38;;;25.41;43.17
67738;BME280;54534;43.612;1.572;2022-07-29T02:31:26;99031.38;;;25.41;43.02
67738;BME280;54534;43.612;1.572;2022-07-29T02:33:54;99039.44;;;25.41;43.26
67738;BME280;54534;43.612;1.572;2022-07-29T02:36:22;99037.75;;;25.40;43.04
67738;BME280;54534;43.612;1.572;2022-07-29T02:38:49;99041.47;;;25.39;43.18
67738;BME280;54534;43.612;1.572;2022-07-29T02:41:18;99047.72;;;25.40;43.31
67738;BME280;54534;43.612;1.572;2022-07-29T02:43:45;99041.63;;;25.38;43.06
67738;BME280;54534;43.612;1.572;2022-07-29T02:46:14;99048.72;;;25.39;43.27
67738;BME280;54534;43.612;1.572;2022-07-29T02:48:55;99048.72;;;25.39;42.99
67738;BME280;54534;43.612;1.572;2022-07-29T02:51:28;99054.09;;;25.39;43.40
67738;BME280;54534;43.612;1.572;2022-07-29T02:53:59;99039.78;;;25.38;43.35
67738;BME280;54534;43.612;1.572;2022-07-29T02:56:31;99046.22;;;25.37;42.85
67738;BME280;54534;43.612;1.572;2022-07-29T02:59:04;99047.88;;;25.38;42.83
67738;BME280;54534;43.612;1.572;2022-07-29T03:01:33;99049.72;;;25.38;43.24
67738;BME280;54534;43.612;1.572;2022-07-29T03:04:01;99050.56;;;25.38;42.99
67738;BME280;54534;43.612;1.572;2022-07-29T03:06:28;99052.59;;;25.36;43.28
67738;BME280;54534;43.612;1.572;2022-07-29T03:08:54;99047.22;;;25.36;42.83
67738;BME280;54534;43.612;1.572;2022-07-29T03:11:20;99039.13;;;25.36;42.89
67738;BME280;54534;43.612;1.572;2022-07-29T03:13:47;99044.50;;;25.36;43.01
67738;BME280;54534;43.612;1.572;2022-07-29T03:16:13;99037.44;;;25.35;42.75
67738;BME280;54534;43.612;1.572;2022-07-29T03:18:39;99040.13;;;25.35;42.63
67738;BME280;54534;43.612;1.572;2022-07-29T03:21:05;99036.63;;;25.35;42.74
67738;BME280;54534;43.612;1.572;2022-07-29T03:23:31;99033.09;;;25.34;42.82
67738;BME280;54534;43.612;1.572;2022-07-29T03:25:56;99026.88;;;25.33;42.93
67738;BME280;54534;43.612;1.572;2022-07-29T03:28:22;99030.41;;;25.34;42.87
67738;BME280;54534;43.612;1.572;2022-07-29T03:30:48;99047.53;;;25.33;42.90
67738;BME280;54534;43.612;1.572;2022-07-29T03:33:14;99044.00;;;25.32;42.51
67738;BME280;54534;43.612;1.572;2022-07-29T03:35:40;99040.50;;;25.32;42.92
67738;BME280;54534;43.612;1.572;2022-07-29T03:38:05;99030.56;;;25.32;42.87
67738;BME280;54534;43.612;1.572;2022-07-29T03:40:34;99041.50;;;25.31;42.98
67738;BME280;54534;43.612;1.572;2022-07-29T03:43:01;99049.56;;;25.31;42.90
67738;BME280;54534;43.612;1.572;2022-07-29T03:45:29;99061.19;;;25.31;42.71
67738;BME280;54534;43.612;1.572;2022-07-29T03:48:06;99063.03;;;25.31;42.36
67738;BME280;54534;43.612;1.572;2022-07-29T03:50:33;99049.56;;;25.31;42.78
67738;BME280;54534;43.612;1.572;2022-07-29T03:52:59;99041.50;;;25.31;42.82
67738;BME280;54534;43.612;1.572;2022-07-29T03:55:26;99037.97;;;25.30;42.82
67738;BME280;54534;43.612;1.572;2022-07-29T03:57:55;99031.75;;;25.30;42.76
67738;BME280;54534;43.612;1.572;2022-07-29T04:00:23;99030.09;;;25.29;42.58
67738;BME280;54534;43.612;1.572;2022-07-29T04:02:49;99040.84;;;25.29;42.59
67738;BME280;54534;43.612;1.572;2022-07-29T04:05:15;99043.69;;;25.27;42.86
67738;BME280;54534;43.612;1.572;2022-07-29T04:07:46;99043.69;;;25.27;42.61
67738;BME280;54534;43.612;1.572;2022-07-29T04:10:12;99040.16;;;25.27;42.75
67738;BME280;54534;43.612;1.572;2022-07-29T04:12:38;99036.47;;;25.28;42.81
67738;BME280;54534;43.612;1.572;2022-07-29T04:15:04;99057.31;;;25.26;42.54
67738;BME280;54534;43.612;1.572;2022-07-29T04:17:30;99071.63;;;25.26;42.51
67738;BME280;54534;43.612;1.572;2022-07-29T04:19:55;99059.16;;;25.25;42.83
67738;BME280;54534;43.612;1.572;2022-07-29T04:22:21;99068.09;;;25.26;42.34
67738;BME280;54534;43.612;1.572;2022-07-29T04:24:46;99089.63;;;25.26;42.92
67738;BME280;54534;43.612;1.572;2022-07-29T04:27:11;99093.97;;;25.27;42.53
67738;BME280;54534;43.612;1.572;2022-07-29T04:29:37;99113.81;;;25.26;42.58
67738;BME280;54534;43.612;1.572;2022-07-29T04:32:02;99138.91;;;25.26;42.82
67738;BME280;54534;43.612;1.572;2022-07-29T04:34:28;99151.50;;;25.26;42.80
67738;BME280;54534;43.612;1.572;2022-07-29T04:36:53;99147.13;;;25.25;43.10
67738;BME280;54534;43.612;1.572;2022-07-29T04:39:19;99131.81;;;25.25;43.18
67738;BME280;54534;43.612;1.572;2022-07-29T04:41:44;99123.94;;;25.24;43.20
67738;BME280;54534;43.612;1.572;2022-07-29T04:44:09;99121.06;;;25.25;43.08
67738;BME280;54534;43.612;1.572;2022-07-29T04:46:35;99119.38;;;25.24;42.86
67738;BME280;54534;43.612;1.572;2022-07-29T04:49:01;99125.59;;;25.25;43.23
67738;BME280;54534;43.612;1.572;2022-07-29T04:51:26;99127.63;;;25.23;42.99
67738;BME280;54534;43.612;1.572;2022-07-29T04:53:52;99113.16;;;25.24;43.34
67738;BME280;54534;43.612;1.572;2022-07-29T04:56:17;99140.06;;;25.24;43.16
67738;BME280;54534;43.612;1.572;2022-07-29T04:58:43;99144.59;;;25.23;43.00
67738;BME280;54534;43.612;1.572;2022-07-29T05:01:08;99149.47;;;25.19;43.02
67738;BME280;54534;43.612;1.572;2022-07-29T05:03:34;99172.03;;;25.10;43.55
67738;BME280;54534;43.612;1.572;2022-07-29T05:05:59;99183.25;;;24.97;43.76
67738;BME280;54534;43.612;1.572;2022-07-29T05:08:24;99185.72;;;24.82;43.74
67738;BME280;54534;43.612;1.572;2022-07-29T05:10:50;99182.00;;;24.66;44.09
67738;BME280;54534;43.612;1.572;2022-07-29T05:13:15;99179.28;;;24.49;44.46
67738;BME280;54534;43.612;1.572;2022-07-29T05:15:41;99165.47;;;24.36;45.06
67738;BME280;54534;43.612;1.572;2022-07-29T05:18:06;99172.94;;;24.24;45.25
67738;BME280;54534;43.612;1.572;2022-07-29T05:20:32;99163.19;;;24.14;45.69
67738;BME280;54534;43.612;1.572;2022-07-29T05:23:00;99153.38;;;24.05;46.19
67738;BME280;54534;43.612;1.572;2022-07-29T05:25:26;99150.69;;;23.96;46.72
67738;BME280;54534;43.612;1.572;2022-07-29T05:27:53;99138.06;;;23.88;47.08
67738;BME280;54534;43.612;1.572;2022-07-29T05:30:19;99105.63;;;23.82;47.97
67738;BME280;54534;43.612;1.572;2022-07-29T05:32:45;99077.59;;;23.76;48.51
67738;BME280;54534;43.612;1.572;2022-07-29T05:35:11;99072.53;;;23.73;48.93
67738;BME280;54534;43.612;1.572;2022-07-29T05:37:37;99072.03;;;23.69;49.15
67738;BME280;54534;43.612;1.572;2022-07-29T05:40:03;99128.19;;;23.62;49.55
67738;BME280;54534;43.612;1.572;2022-07-29T05:42:29;99204.97;;;23.55;50.29
67738;BME280;54534;43.612;1.572;2022-07-29T05:44:54;99222.97;;;23.44;50.24
67738;BME280;54534;43.612;1.572;2022-07-29T05:47:20;99237.47;;;23.33;50.28
67738;BME280;54534;43.612;1.572;2022-07-29T05:49:46;99228.13;;;23.19;50.75
67738;BME280;54534;43.612;1.572;2022-07-29T05:52:11;99222.31;;;23.06;50.98
67738;BME280;54534;43.612;1.572;2022-07-29T05:54:38;99206.28;;;22.96;51.35
67738;BME280;54534;43.612;1.572;2022-07-29T05:57:03;99174.06;;;22.87;51.76
67738;BME280;54534;43.612;1.572;2022-07-29T05:59:29;99189.59;;;22.84;52.18
67738;BME280;54534;43.612;1.572;2022-07-29T06:01:55;99172.94;;;22.80;52.10
67738;BME280;54534;43.612;1.572;2022-07-29T06:04:20;99161.72;;;22.76;52.25
67738;BME280;54534;43.612;1.572;2022-07-29T06:06:45;99173.59;;;22.74;52.24
67738;BME280;54534;43.612;1.572;2022-07-29T06:09:11;99180.09;;;22.71;52.22
67738;BME280;54534;43.612;1.572;2022-07-29T06:11:36;99125.06;;;22.67;52.57
67738;BME280;54534;43.612;1.572;2022-07-29T06:14:01;99095.19;;;22.62;52.71
67738;BME280;54534;43.612;1.572;2022-07-29T06:16:28;99142.06;;;22.58;53.29
67738;BME280;54534;43.612;1.572;2022-07-29T06:18:53;99157.44;;;22.55;53.45
67738;BME280;54534;43.612;1.572;2022-07-29T06:21:19;99176.91;;;22.58;53.38
67738;BME280;54534;43.612;1.572;2022-07-29T06:23:44;99222.84;;;22.63;53.44
67738;BME280;54534;43.612;1.572;2022-07-29T06:26:10;99237.34;;;22.70;53.18
67738;BME280;54534;43.612;1.572;2022-07-29T06:28:35;99201.75;;;22.78;53.05
67738;BME280;54534;43.612;1.572;2022-07-29T06:31:01;99210.03;;;22.85;52.50
67738;BME280;54534;43.612;1.572;2022-07-29T06:33:27;99242.44;;;22.92;52.58
67738;BME280;54534;43.612;1.572;2022-07-29T06:35:52;99257.78;;;22.99;52.37
67738;BME280;54534;43.612;1.572;2022-07-29T06:38:17;99256.16;;;23.07;52.19
67738;BME280;54534;43.612;1.572;2022-07-29T06:40:44;99256.53;;;23.12;51.99
67738;BME280;54534;43.612;1.572;2022-07-29T06:43:28;99227.44;;;23.17;51.80
67738;BME280;54534;43.612;1.572;2022-07-29T06:45:58;99246.44;;;23.24;51.63
67738;BME280;54534;43.612;1.572;2022-07-29T06:48:23;99221.00;;;23.28;51.38
67738;BME280;54534;43.612;1.572;2022-07-29T06:50:48;99236.63;;;23.33;51.34
67738;BME280;54534;43.612;1.572;2022-07-29T06:53:14;99268.50;;;23.36;51.07
67738;BME280;54534;43.612;1.572;2022-07-29T06:55:39;99263.53;;;23.41;51.04
67738;BME280;54534;43.612;1.572;2022-07-29T06:58:04;99281.16;;;23.44;50.85
67738;BME280;54534;43.612;1.572;2022-07-29T07:00:30;99282.69;;;23.47;50.79
67738;BME280;54534;43.612;1.572;2022-07-29T07:02:55;99301.19;;;23.50;50.56
67738;BME280;54534;43.612;1.572;2022-07-29T07:05:21;99303.56;;;23.53;50.50
67738;BME280;54534;43.612;1.572;2022-07-29T07:07:46;99295.22;;;23.56;50.51
67738;BME280;54534;43.612;1.572;2022-07-29T07:10:12;99290.53;;;23.58;50.29
67738;BME280;54534;43.612;1.572;2022-07-29T07:12:37;99288.53;;;23.60;50.22
67738;BME280;54534;43.612;1.572;2022-07-29T07:15:03;99296.28;;;23.63;50.21
67738;BME280;54534;43.612;1.572;2022-07-29T07:17:28;99293.44;;;23.65;50.00
67738;BME280;54534;43.612;1.572;2022-07-29T07:19:53;99295.13;;;23.66;50.10
67738;BME280;54534;43.612;1.572;2022-07-29T07:22:19;99294.81;;;23.69;49.99
67738;BME280;54534;43.612;1.572;2022-07-29T07:24:44;99286.59;;;23.71;49.97
67738;BME280;54534;43.612;1.572;2022-07-29T07:27:10;99281.91;;;23.73;49.82
67738;BME280;54534;43.612;1.572;2022-07-29T07:29:35;99275.56;;;23.74;49.55
67738;BME280;54534;43.612;1.572;2022-07-29T07:32:01;99269.88;;;23.77;49.79
67738;BME280;54534;43.612;1.572;2022-07-29T07:34:27;99281.47;;;23.77;49.75
67738;BME280;54534;43.612;1.572;2022-07-29T07:36:52;99300.09;;;23.79;49.63
67738;BME280;54534;43.612;1.572;2022-07-29T07:39:17;99303.47;;;23.81;49.69
67738;BME280;54534;43.612;1.572;2022-07-29T07:41:43;99295.25;;;23.83;49.58
67738;BME280;54534;43.612;1.572;2022-07-29T07:44:08;99287.22;;;23.83;49.58
67738;BME280;54534;43.612;1.572;2022-07-29T07:46:34;99291.44;;;23.85;49.47
67738;BME280;54534;43.612;1.572;2022-07-29T07:48:59;99282.34;;;23.86;49.45
67738;BME280;54534;43.612;1.572;2022-07-29T07:51:24;99276.00;;;23.87;49.47
67738;BME280;54534;43.612;1.572;2022-07-29T07:53:50;99276.69;;;23.89;49.46
67738;BME280;54534;43.612;1.572;2022-07-29T07:56:16;99271.31;;;23.89;49.37
67738;BME280;54534;43.612;1.572;2022-07-29T07:58:41;99285.41;;;23.92;49.30
67738;BME280;54534;43.612;1.572;2022-07-29T08:01:08;99283.56;;;23.92;49.09
67738;BME280;54534;43.612;1.572;2022-07-29T08:03:34;99277.22;;;23.93;49.23
67738;BME280;54534;43.612;1.572;2022-07-29T08:05:59;99293.16;;;23.95;49.27
67738;BME280;54534;43.612;1.572;2022-07-29T08:08:25;99308.28;;;23.96;49.03
67738;BME280;54534;43.612;1.572;2022-07-29T08:10:50;99286.81;;;23.96;49.19
67738;BME280;54534;43.612;1.572;2022-07-29T08:13:20;99293.69;;;23.98;49.08
67738;BME280;54534;43.612;1.572;2022-07-29T08:15:45;99301.75;;;23.98;49.04
67738;BME280;54534;43.612;1.572;2022-07-29T08:18:12;99310.50;;;24.00;48.72
67738;BME280;54534;43.612;1.572;2022-07-29T08:20:38;99314.03;;;24.01;48.85
67738;BME280;54534;43.612;1.572;2022-07-29T08:23:05;99313.00;;;24.02;48.83
67738;BME280;54534;43.612;1.572;2022-07-29T08:25:32;99325.63;;;24.02;48.87
67738;BME280;54534;43.612;1.572;2022-07-29T08:27:58;99326.28;;;24.04;48.83
67738;BME280;54534;43.612;1.572;2022-07-29T08:30:24;99344.94;;;24.05;48.74
67738;BME280;54534;43.612;1.572;2022-07-29T08:32:49;99343.94;;;24.06;48.64
67738;BME280;54534;43.612;1.572;2022-07-29T08:35:21;99352.00;;;24.06;48.65
67738;BME280;54534;43.612;1.572;2022-07-29T08:37:46;99361.72;;;24.07;48.60
67738;BME280;54534;43.612;1.572;2022-07-29T08:40:12;99355.53;;;24.07;48.46
67738;BME280;54534;43.612;1.572;2022-07-29T08:42:39;99365.25;;;24.08;48.36
67738;BME280;54534;43.612;1.572;2022-07-29T08:45:05;99371.31;;;24.10;48.44
67738;BME280;54534;43.612;1.572;2022-07-29T08:47:31;99379.38;;;24.10;48.37
67738;BME280;54534;43.612;1.572;2022-07-29T08:49:57;99373.84;;;24.11;48.31
67738;BME280;54534;43.612;1.572;2022-07-29T08:52:25;99368.50;;;24.11;48.42
67738;BME280;54534;43.612;1.572;2022-07-29T08:54:52;99380.94;;;24.13;48.28
67738;BME280;54534;43.612;1.572;2022-07-29T08:57:19;99384.44;;;24.13;48.27
67738;BME280;54534;43.612;1.572;2022-07-29T08:59:46;99383.44;;;24.14;48.24
67738;BME280;54534;43.612;1.572;2022-07-29T09:02:19;99378.94;;;24.15;48.11
67738;BME280;54534;43.612;1.572;2022-07-29T09:04:45;99371.72;;;24.15;48.04
67738;BME280;54534;43.612;1.572;2022-07-29T09:07:14;99373.38;;;24.16;48.03
67738;BME280;54534;43.612;1.572;2022-07-29T09:09:40;99370.88;;;24.15;48.00
67738;BME280;54534;43.612;1.572;2022-07-29T09:12:05;99368.84;;;24.17;48.32
67738;BME280;54534;43.612;1.572;2022-07-29T09:14:33;99370.56;;;24.18;48.18
67738;BME280;54534;43.612;1.572;2022-07-29T09:16:59;99362.50;;;24.18;47.97
67738;BME280;54534;43.612;1.572;2022-07-29T09:19:30;99363.31;;;24.18;48.17
67738;BME280;54534;43.612;1.572;2022-07-29T09:21:58;99353.41;;;24.19;47.91
67738;BME280;54534;43.612;1.572;2022-07-29T09:24:26;99355.13;;;24.20;47.94
67738;BME280;54534;43.612;1.572;2022-07-29T09:26:52;99344.38;;;24.20;47.82
67738;BME280;54534;43.612;1.572;2022-07-29T09:29:20;99331.78;;;24.20;47.82
67738;BME280;54534;43.612;1.572;2022-07-29T09:31:48;99339.00;;;24.20;47.96
67738;BME280;54534;43.612;1.572;2022-07-29T09:34:17;99333.47;;;24.21;47.85
67738;BME280;54534;43.612;1.572;2022-07-29T09:36:48;99327.22;;;24.21;48.02
67738;BME280;54534;43.612;1.572;2022-07-29T09:39:15;99319.19;;;24.21;47.89
67738;BME280;54534;43.612;1.572;2022-07-29T09:41:53;99321.72;;;24.22;47.69
67738;BME280;54534;43.612;1.572;2022-07-29T09:44:19;99308.28;;;24.22;47.54
67738;BME280;54534;43.612;1.572;2022-07-29T09:46:59;99299.22;;;24.24;47.59
67738;BME280;54534;43.612;1.572;2022-07-29T09:49:31;99301.91;;;24.24;47.73
67738;BME280;54534;43.612;1.572;2022-07-29T09:52:05;99302.75;;;24.24;47.59
67738;BME280;54534;43.612;1.572;2022-07-29T09:54:31;99297.38;;;24.24;47.45
67738;BME280;54534;43.612;1.572;2022-07-29T09:57:03;99301.75;;;24.25;47.47
67738;BME280;54534;43.612;1.572;2022-07-29T09:59:30;99305.28;;;24.26;47.39
67738;BME280;54534;43.612;1.572;2022-07-29T10:01:56;99304.31;;;24.27;47.45
67738;BME280;54534;43.612;1.572;2022-07-29T10:04:21;99295.38;;;24.26;47.29
67738;BME280;54534;43.612;1.572;2022-07-29T10:09:22;99294.41;;;24.27;47.17
67738;BME280;54534;43.612;1.572;2022-07-29T10:14:31;99302.47;;;24.27;47.16
67738;BME280;54534;43.612;1.572;2022-07-29T10:16:59;99301.31;;;24.30;47.06
67738;BME280;54534;43.612;1.572;2022-07-29T10:19:25;99316.56;;;24.29;47.32
67738;BME280;54534;43.612;1.572;2022-07-29T10:21:51;99314.56;;;24.31;47.40
67738;BME280;54534;43.612;1.572;2022-07-29T10:24:17;99320.97;;;24.30;47.14
67738;BME280;54534;43.612;1.572;2022-07-29T10:26:43;99320.97;;;24.30;47.01
67738;BME280;54534;43.612;1.572;2022-07-29T10:29:11;99324.50;;;24.31;47.22
67738;BME280;54534;43.612;1.572;2022-07-29T10:31:47;99317.25;;;24.31;47.03
67738;BME280;54534;43.612;1.572;2022-07-29T10:34:27;99313.56;;;24.32;47.20
67738;BME280;54534;43.612;1.572;2022-07-29T10:37:22;99312.59;;;24.33;46.99
67738;BME280;54534;43.612;1.572;2022-07-29T10:43:15;99315.28;;;24.33;46.84
67738;BME280;54534;43.612;1.572;2022-07-29T10:45:43;99307.22;;;24.33;46.90
67738;BME280;54534;43.612;1.572;2022-07-29T10:48:09;99309.91;;;24.33;47.04
67738;BME280;54534;43.612;1.572;2022-07-29T10:51:02;99300.81;;;24.35;46.83
67738;BME280;54534;43.612;1.572;2022-07-29T10:56:32;99298.13;;;24.35;46.78
67738;BME280;54534;43.612;1.572;2022-07-29T11:01:48;99283.84;;;24.34;46.76
67738;BME280;54534;43.612;1.572;2022-07-29T11:07:11;99286.38;;;24.36;46.85
67738;BME280;54534;43.612;1.572;2022-07-29T11:09:38;99284.56;;;24.36;46.84
67738;BME280;54534;43.612;1.572;2022-07-29T11:15:00;99263.06;;;24.36;46.75
67738;BME280;54534;43.612;1.572;2022-07-29T11:17:28;99257.50;;;24.38;46.87
67738;BME280;54534;43.612;1.572;2022-07-29T11:20:32;99256.53;;;24.39;46.92
67738;BME280;54534;43.612;1.572;2022-07-29T11:22:58;99264.59;;;24.39;46.67
67738;BME280;54534;43.612;1.572;2022-07-29T11:25:24;99259.22;;;24.39;46.76
67738;BME280;54534;43.612;1.572;2022-07-29T11:28:07;99258.19;;;24.40;46.88
67738;BME280;54534;43.612;1.572;2022-07-29T11:30:53;99260.72;;;24.41;46.82
67738;BME280;54534;43.612;1.572;2022-07-29T11:33:29;99275.16;;;24.40;46.56
67738;BME280;54534;43.612;1.572;2022-07-29T11:36:20;99268.78;;;24.41;46.74
67738;BME280;54534;43.612;1.572;2022-07-29T11:38:46;99262.56;;;24.41;46.82
67738;BME280;54534;43.612;1.572;2022-07-29T11:43:46;99257.88;;;24.43;46.66
67738;BME280;54534;43.612;1.572;2022-07-29T11:46:12;99255.19;;;24.43;46.67
67738;BME280;54534;43.612;1.572;2022-07-29T11:48:42;99250.66;;;24.43;46.44
67738;BME280;54534;43.612;1.572;2022-07-29T11:51:10;99254.50;;;24.41;46.69
67738;BME280;54534;43.612;1.572;2022-07-29T11:53:37;99253.34;;;24.43;46.37
67738;BME280;54534;43.612;1.572;2022-07-29T11:56:04;99247.97;;;24.43;46.23
67738;BME280;54534;43.612;1.572;2022-07-29T11:58:30;99250.47;;;24.45;46.46
67738;BME280;54534;43.612;1.572;2022-07-29T12:00:56;99243.44;;;24.44;46.63
67738;BME280;54534;43.612;1.572;2022-07-29T12:03:26;99246.81;;;24.46;46.42
67738;BME280;54534;43.612;1.572;2022-07-29T12:05:51;99250.47;;;24.45;46.60
67738;BME280;54534;43.612;1.572;2022-07-29T12:08:22;99246.81;;;24.46;46.24
67738;BME280;54534;43.612;1.572;2022-07-29T12:10:51;99254.69;;;24.48;46.23
67738;BME280;54534;43.612;1.572;2022-07-29T12:13:19;99236.91;;;24.47;46.55
67738;BME280;54534;43.612;1.572;2022-07-29T12:15:53;99236.06;;;24.46;46.48
67738;BME280;54534;43.612;1.572;2022-07-29T12:18:19;99246.63;;;24.48;46.46
67738;BME280;54534;43.612;1.572;2022-07-29T12:20:48;99258.22;;;24.48;46.49
67738;BME280;54534;43.612;1.572;2022-07-29T12:23:15;99250.16;;;24.48;46.08
67738;BME280;54534;43.612;1.572;2022-07-29T12:25:42;99251.00;;;24.49;46.26
67738;BME280;54534;43.612;1.572;2022-07-29T12:28:13;99245.63;;;24.49;46.28
67738;BME280;54534;43.612;1.572;2022-07-29T12:30:47;99242.78;;;24.50;46.26
67738;BME280;54534;43.612;1.572;2022-07-29T12:35:44;99246.47;;;24.49;46.13
67738;BME280;54534;43.612;1.572;2022-07-29T12:38:12;99253.53;;;24.50;46.09
67738;BME280;54534;43.612;1.572;2022-07-29T12:40:38;99254.38;;;24.51;46.17
67738;BME280;54534;43.612;1.572;2022-07-29T12:43:18;99262.28;;;24.52;45.91
67738;BME280;54534;43.612;1.572;2022-07-29T12:45:46;99259.59;;;24.52;46.26
67738;BME280;54534;43.612;1.572;2022-07-29T12:48:13;99255.22;;;24.51;46.01
67738;BME280;54534;43.612;1.572;2022-07-29T12:50:57;99252.34;;;24.53;45.86
67738;BME280;54534;43.612;1.572;2022-07-29T12:53:24;99257.91;;;24.51;45.86
67738;BME280;54534;43.612;1.572;2022-07-29T12:55:51;99268.47;;;24.53;45.92
67738;BME280;54534;43.612;1.572;2022-07-29T12:58:36;99272.03;;;24.53;45.68
67738;BME280;54534;43.612;1.572;2022-07-29T13:03:54;99274.72;;;24.53;45.90
67738;BME280;54534;43.612;1.572;2022-07-29T13:06:41;99268.34;;;24.54;45.90
67738;BME280;54534;43.612;1.572;2022-07-29T13:09:13;99260.28;;;24.54;46.02
67738;BME280;54534;43.612;1.572;2022-07-29T13:11:41;99267.31;;;24.55;45.79
67738;BME280;54534;43.612;1.572;2022-07-29T13:14:09;99259.25;;;24.55;45.75
67738;BME280;54534;43.612;1.572;2022-07-29T13:16:36;99262.78;;;24.56;45.67
67738;BME280;54534;43.612;1.572;2022-07-29T13:19:10;99256.44;;;24.57;45.81
67738;BME280;54534;43.612;1.572;2022-07-29T13:21:38;99255.56;;;24.57;45.97
67738;BME280;54534;43.612;1.572;2022-07-29T13:24:05;99255.56;;;24.57;45.82
67738;BME280;54534;43.612;1.572;2022-07-29T13:26:31;99256.44;;;24.57;45.87
67738;BME280;54534;43.612;1.572;2022-07-29T13:28:57;99264.50;;;24.57;45.90
67738;BME280;54534;43.612;1.572;2022-07-29T13:31:22;99268.84;;;24.58;45.68
67738;BME280;54534;43.612;1.572;2022-07-29T13:33:48;99258.94;;;24.59;45.93
67738;BME280;54534;43.612;1.572;2022-07-29T13:36:13;99266.00;;;24.60;45.65
67738;BME280;54534;43.612;1.572;2022-07-29T13:38:39;99266.00;;;24.60;45.75
67738;BME280;54534;43.612;1.572;2022-07-29T13:41:04;99271.38;;;24.60;45.66